Time,TemperatureF,DewpointF,PressureIn,WindDirection,WindDirectionDegrees,WindSpeedMPH,WindSpeedGustMPH,Humidity,HourlyPrecipIn,Conditions,Clouds,dailyrainin,SoftwareType,DateUTC
2013-01-24 00:03:00,23.0,-99.9,30.19,NE,47,9.0,10.0,-999,-99.99,,,-99.99,,2013-01-24 05:03:00,
2013-01-24 00:12:00,23.0,-99.9,30.19,NE,47,9.0,10.0,-999,-99.99,,,-99.99,,2013-01-24 05:12:00,
2013-01-24 00:23:00,24.0,-99.9,30.19,NE,48,10.0,12.0,-999,-99.99,,,-99.99,,2013-01-24 05:23:00,
2013-01-24 00:33:00,24.0,-99.9,30.19,NE,48,10.0,12.0,-999,-99.99,,,-99.99,,2013-01-24 05:33:00,
2013-01-24 00:43:00,23.0,-99.9,30.18,NE,48,12.0,14.0,-999,-99.99,,,-99.99,,2013-01-24 05:43:00,
2013-01-24 00:53:00,23.0,-99.9,30.18,NE,48,10.0,14.0,-999,-99.99,,,-99.99,,2013-01-24 05:53:00,
2013-01-24 01:03:00,23.0,-99.9,30.17,NE,47,9.0,11.0,-999,-99.99,,,-99.99,,2013-01-24 06:03:00,
2013-01-24 01:12:00,22.0,-99.9,30.17,NNE,29,4.0,6.0,-999,-99.99,,,-99.99,,2013-01-24 06:12:00,
2013-01-24 01:22:00,22.0,-99.9,30.16,NNE,12,7.0,10.0,-999,-99.99,,,-99.99,,2013-01-24 06:22:00,
2013-01-24 01:33:00,22.0,-99.9,30.16,NE,35,8.0,10.0,-999,-99.99,,,-99.99,,2013-01-24 06:33:00,
2013-01-24 01:42:00,22.0,-99.9,30.16,NE,35,8.0,10.0,-999,-99.99,,,-99.99,,2013-01-24 06:42:00,
2013-01-24 01:53:00,-999.0,-99.9,30.15,NE,36,12.0,15.0,-999,-99.99,,,-99.99,,2013-01-24 06:53:00,
2013-01-24 02:03:00,21.0,-99.9,30.15,NE,41,9.0,11.0,-999,-99.99,,,-99.99,,2013-01-24 07:03:00,
2013-01-24 02:13:00,21.0,-99.9,30.15,NNE,31,10.0,14.0,-999,-99.99,,,-99.99,,2013-01-24 07:13:00,
2013-01-24 02:23:00,-999.0,-99.9,30.14,NE,47,12.0,15.0,-999,-99.99,,,-99.99,,2013-01-24 07:23:00,
2013-01-24 02:34:00,21.0,-99.9,30.14,ENE,61,11.0,13.0,-999,-99.99,,,-99.99,,2013-01-24 07:34:00,
2013-01-24 02:43:00,22.0,-99.9,30.14,NNE,26,11.0,15.0,-999,-99.99,,,-99.99,,2013-01-24 07:43:00,
2013-01-24 02:53:00,22.0,-99.9,30.14,NNE,26,11.0,15.0,-999,-99.99,,,-99.99,,2013-01-24 07:53:00,
2013-01-24 03:03:00,21.0,-99.9,30.13,NNE,27,12.0,15.0,-999,-99.99,,,-99.99,,2013-01-24 08:03:00,
2013-01-24 03:13:00,20.0,-99.9,30.12,NE,39,13.0,16.0,-999,-99.99,,,-99.99,,2013-01-24 08:13:00,
2013-01-24 03:23:00,-999.0,-99.9,30.12,NE,50,15.0,17.0,-999,-99.99,,,-99.99,,2013-01-24 08:23:00,
2013-01-24 03:33:00,-999.0,-99.9,30.12,NE,50,15.0,17.0,-999,-99.99,,,-99.99,,2013-01-24 08:33:00,
2013-01-24 03:43:00,19.0,-99.9,30.11,NE,55,16.0,19.0,-999,-99.99,,,-99.99,,2013-01-24 08:43:00,
2013-01-24 03:53:00,19.0,-99.9,30.11,NE,49,14.0,16.0,-999,-99.99,,,-99.99,,2013-01-24 08:53:00,
2013-01-24 04:03:00,19.0,-99.9,30.11,NE,49,14.0,16.0,-999,-99.99,,,-99.99,,2013-01-24 09:03:00,
2013-01-24 04:13:00,19.0,-99.9,30.11,NE,53,13.0,16.0,-999,-99.99,,,-99.99,,2013-01-24 09:13:00,
2013-01-24 04:23:00,-999.0,-99.9,30.10,NE,55,15.0,18.0,-999,-99.99,,,-99.99,,2013-01-24 09:23:00,
2013-01-24 04:34:00,19.0,-99.9,30.10,NE,47,15.0,17.0,-999,-99.99,,,-99.99,,2013-01-24 09:34:00,
2013-01-24 04:43:00,19.0,-99.9,30.10,NE,47,15.0,17.0,-999,-99.99,,,-99.99,,2013-01-24 09:43:00,
2013-01-24 04:53:00,20.0,-99.9,30.10,NE,43,16.0,19.0,-999,-99.99,,,-99.99,,2013-01-24 09:53:00,
2013-01-24 05:03:00,20.0,-99.9,30.10,NE,36,16.0,19.0,-999,-99.99,,,-99.99,,2013-01-24 10:03:00,
2013-01-24 05:13:00,20.0,-99.9,30.10,NE,36,16.0,19.0,-999,-99.99,,,-99.99,,2013-01-24 10:13:00,
2013-01-24 05:23:00,19.0,-99.9,30.10,NE,39,19.0,22.0,-999,-99.99,,,-99.99,,2013-01-24 10:23:00,
2013-01-24 05:34:00,19.0,-99.9,30.10,NE,39,19.0,22.0,-999,-99.99,,,-99.99,,2013-01-24 10:34:00,
2013-01-24 05:44:00,19.0,-99.9,30.10,NE,39,19.0,22.0,-999,-99.99,,,-99.99,,2013-01-24 10:44:00,
2013-01-24 05:53:00,-999.0,-99.9,30.11,NNE,27,17.0,20.0,-999,-99.99,,,-99.99,,2013-01-24 10:53:00,
2013-01-24 06:03:00,20.0,-99.9,30.11,NNE,27,18.0,21.0,-999,-99.99,,,-99.99,,2013-01-24 11:03:00,
2013-01-24 06:12:00,20.0,-99.9,30.11,NNE,27,18.0,21.0,-999,-99.99,,,-99.99,,2013-01-24 11:12:00,
2013-01-24 06:23:00,20.0,-99.9,30.12,NNE,22,20.0,24.0,-999,-99.99,,,-99.99,,2013-01-24 11:23:00,
2013-01-24 06:34:00,20.0,-99.9,30.12,NNE,29,22.0,26.0,-999,-99.99,,,-99.99,,2013-01-24 11:34:00,
2013-01-24 06:43:00,20.0,-99.9,30.12,NNE,19,22.0,26.0,-999,-99.99,,,-99.99,,2013-01-24 11:43:00,
2013-01-24 06:53:00,20.0,-99.9,30.13,NNE,25,20.0,24.0,-999,-99.99,,,-99.99,,2013-01-24 11:53:00,
2013-01-24 07:03:00,20.0,-99.9,30.15,NNE,14,23.0,26.0,-999,-99.99,,,-99.99,,2013-01-24 12:03:00,
2013-01-24 07:12:00,20.0,-99.9,30.15,NNE,12,20.0,25.0,-999,-99.99,,,-99.99,,2013-01-24 12:12:00,
2013-01-24 07:23:00,21.0,-99.9,30.15,NNE,12,23.0,29.0,-999,-99.99,,,-99.99,,2013-01-24 12:23:00,
2013-01-24 07:33:00,-999.0,-99.9,30.16,North,7,21.0,25.0,-999,-99.99,,,-99.99,,2013-01-24 12:33:00,
2013-01-24 07:43:00,-999.0,-99.9,30.16,North,7,21.0,25.0,-999,-99.99,,,-99.99,,2013-01-24 12:43:00,
2013-01-24 07:53:00,-999.0,-99.9,30.16,North,7,21.0,25.0,-999,-99.99,,,-99.99,,2013-01-24 12:53:00,
2013-01-24 08:03:00,20.0,-99.9,30.18,NNE,17,21.0,26.0,-999,-99.99,,,-99.99,,2013-01-24 13:03:00,
2013-01-24 08:13:00,-999.0,-99.9,30.18,NNE,16,22.0,28.0,-999,-99.99,,,-99.99,,2013-01-24 13:13:00,
2013-01-24 08:23:00,20.0,-99.9,30.18,NNE,14,21.0,23.0,-999,-99.99,,,-99.99,,2013-01-24 13:23:00,
2013-01-24 08:33:00,20.0,-99.9,30.19,NNE,22,24.0,28.0,-999,-99.99,,,-99.99,,2013-01-24 13:33:00,
2013-01-24 08:43:00,20.0,-99.9,30.19,NNE,14,22.0,26.0,-999,-99.99,,,-99.99,,2013-01-24 13:43:00,
2013-01-24 08:53:00,20.0,-99.9,30.19,NNE,14,22.0,26.0,-999,-99.99,,,-99.99,,2013-01-24 13:53:00,
2013-01-24 09:03:00,20.0,-99.9,30.20,North,11,21.0,25.0,-999,-99.99,,,-99.99,,2013-01-24 14:03:00,
2013-01-24 09:13:00,20.0,-99.9,30.21,NNE,19,24.0,30.0,-999,-99.99,,,-99.99,,2013-01-24 14:13:00,
2013-01-24 09:23:00,-999.0,-99.9,30.22,North,356,21.0,25.0,-999,-99.99,,,-99.99,,2013-01-24 14:23:00,
2013-01-24 09:33:00,-999.0,-99.9,30.22,NNE,12,20.0,25.0,-999,-99.99,,,-99.99,,2013-01-24 14:33:00,
2013-01-24 09:43:00,-999.0,-99.9,30.22,NNE,12,20.0,25.0,-999,-99.99,,,-99.99,,2013-01-24 14:43:00,
2013-01-24 09:54:00,21.0,-99.9,30.23,North,359,21.0,28.0,-999,-99.99,,,-99.99,,2013-01-24 14:54:00,
2013-01-24 10:04:00,21.0,-99.9,30.24,North,3,21.0,27.0,-999,-99.99,,,-99.99,,2013-01-24 15:04:00,
2013-01-24 10:13:00,-999.0,-99.9,30.25,North,4,20.0,25.0,-999,-99.99,,,-99.99,,2013-01-24 15:13:00,
2013-01-24 10:23:00,-999.0,-99.9,30.25,North,354,24.0,32.0,-999,-99.99,,,-99.99,,2013-01-24 15:23:00,
2013-01-24 10:33:00,-999.0,-99.9,30.25,North,354,24.0,32.0,-999,-99.99,,,-99.99,,2013-01-24 15:33:00,
2013-01-24 10:43:00,-999.0,-99.9,30.26,North,3,21.0,26.0,-999,-99.99,,,-99.99,,2013-01-24 15:43:00,
2013-01-24 10:53:00,21.0,-99.9,30.27,North,352,23.0,28.0,-999,-99.99,,,-99.99,,2013-01-24 15:53:00,
2013-01-24 11:04:00,21.0,-99.9,30.27,NNW,347,25.0,29.0,-999,-99.99,,,-99.99,,2013-01-24 16:04:00,
2013-01-24 11:12:00,21.0,-99.9,30.27,North,355,26.0,32.0,-999,-99.99,,,-99.99,,2013-01-24 16:12:00,
2013-01-24 11:23:00,21.0,-99.9,30.27,North,355,26.0,32.0,-999,-99.99,,,-99.99,,2013-01-24 16:23:00,
2013-01-24 11:33:00,22.0,-99.9,30.28,North,352,25.0,32.0,-999,-99.99,,,-99.99,,2013-01-24 16:33:00,
2013-01-24 11:43:00,22.0,-99.9,30.28,North,352,25.0,32.0,-999,-99.99,,,-99.99,,2013-01-24 16:43:00,
2013-01-24 12:03:00,22.0,-99.9,30.28,NNW,338,25.0,30.0,-999,-99.99,,,-99.99,,2013-01-24 17:03:00,
2013-01-24 12:12:00,22.0,-99.9,30.29,NNW,347,24.0,29.0,-999,-99.99,,,-99.99,,2013-01-24 17:12:00,
2013-01-24 12:22:00,22.0,-99.9,30.29,NNW,347,24.0,29.0,-999,-99.99,,,-99.99,,2013-01-24 17:22:00,
2013-01-24 12:33:00,22.0,-99.9,30.29,NNW,346,24.0,30.0,-999,-99.99,,,-99.99,,2013-01-24 17:33:00,
2013-01-24 12:43:00,22.0,-99.9,30.29,NNW,341,27.0,33.0,-999,-99.99,,,-99.99,,2013-01-24 17:43:00,
2013-01-24 12:53:00,22.0,-99.9,30.29,NNW,341,27.0,33.0,-999,-99.99,,,-99.99,,2013-01-24 17:53:00,
2013-01-24 12:54:00,-999.0,-99.9,30.30,NNW,329,22.0,27.0,-999,-99.99,,,-99.99,,2013-01-24 17:54:00,
2013-01-24 13:03:00,22.0,-99.9,30.29,NW,324,24.0,30.0,-999,-99.99,,,-99.99,,2013-01-24 18:03:00,
2013-01-24 13:13:00,22.0,-99.9,30.29,NW,324,24.0,30.0,-999,-99.99,,,-99.99,,2013-01-24 18:13:00,
2013-01-24 13:23:00,-999.0,-99.9,30.30,NNW,329,22.0,27.0,-999,-99.99,,,-99.99,,2013-01-24 18:23:00,
2013-01-24 13:33:00,-999.0,-99.9,30.30,NNW,329,22.0,27.0,-999,-99.99,,,-99.99,,2013-01-24 18:33:00,
2013-01-24 13:43:00,-999.0,-99.9,30.30,NNW,329,22.0,27.0,-999,-99.99,,,-99.99,,2013-01-24 18:43:00,
2013-01-24 14:02:00,24.0,-99.9,30.30,NNW,327,27.0,32.0,-999,-99.99,,,-99.99,,2013-01-24 19:02:00,
2013-01-24 14:13:00,24.0,-99.9,30.30,NNW,334,28.0,35.0,-999,-99.99,,,-99.99,,2013-01-24 19:13:00,
2013-01-24 14:22:00,24.0,-99.9,30.30,NNW,336,23.0,28.0,-999,-99.99,,,-99.99,,2013-01-24 19:22:00,
2013-01-24 14:33:00,24.0,-99.9,30.30,NNW,336,23.0,28.0,-999,-99.99,,,-99.99,,2013-01-24 19:33:00,
2013-01-24 14:42:00,24.0,-99.9,30.31,NNW,333,29.0,38.0,-999,-99.99,,,-99.99,,2013-01-24 19:42:00,
2013-01-24 14:53:00,24.0,-99.9,30.32,NNW,329,25.0,29.0,-999,-99.99,,,-99.99,,2013-01-24 19:53:00,
2013-01-24 15:03:00,24.0,-99.9,30.31,NW,318,28.0,32.0,-999,-99.99,,,-99.99,,2013-01-24 20:03:00,
2013-01-24 15:12:00,24.0,-99.9,30.31,NW,318,28.0,32.0,-999,-99.99,,,-99.99,,2013-01-24 20:12:00,
2013-01-24 15:23:00,25.0,-99.9,30.33,NNW,330,24.0,28.0,-999,-99.99,,,-99.99,,2013-01-24 20:23:00,
2013-01-24 15:33:00,-999.0,-99.9,30.33,NNW,337,31.0,38.0,-999,-99.99,,,-99.99,,2013-01-24 20:33:00,
2013-01-24 15:43:00,25.0,-99.9,30.33,NNW,337,31.0,38.0,-999,-99.99,,,-99.99,,2013-01-24 20:43:00,
2013-01-24 15:53:00,-999.0,-99.9,30.34,NNW,328,28.0,33.0,-999,-99.99,,,-99.99,,2013-01-24 20:53:00,
2013-01-24 16:03:00,-999.0,-99.9,30.34,NNW,328,28.0,33.0,-999,-99.99,,,-99.99,,2013-01-24 21:03:00,
2013-01-24 16:13:00,-999.0,-99.9,30.34,NNW,328,28.0,33.0,-999,-99.99,,,-99.99,,2013-01-24 21:13:00,
2013-01-24 16:23:00,-999.0,-99.9,30.34,NNW,328,28.0,33.0,-999,-99.99,,,-99.99,,2013-01-24 21:23:00,
2013-01-24 16:33:00,-999.0,-99.9,30.35,NNW,328,26.0,31.0,-999,-99.99,,,-99.99,,2013-01-24 21:33:00,
2013-01-24 16:44:00,-999.0,-99.9,30.35,NNW,330,27.0,34.0,-999,-99.99,,,-99.99,,2013-01-24 21:44:00,
2013-01-24 16:53:00,26.0,-99.9,30.36,NNW,335,25.0,35.0,-999,-99.99,,,-99.99,,2013-01-24 21:53:00,
2013-01-24 17:03:00,26.0,-99.9,30.38,NNW,339,29.0,35.0,-999,-99.99,,,-99.99,,2013-01-24 22:03:00,
2013-01-24 17:12:00,26.0,-99.9,30.38,NNW,339,29.0,35.0,-999,-99.99,,,-99.99,,2013-01-24 22:12:00,
2013-01-24 17:23:00,26.0,-99.9,30.38,NNW,339,29.0,35.0,-999,-99.99,,,-99.99,,2013-01-24 22:23:00,
2013-01-24 17:33:00,26.0,-99.9,30.39,NW,325,27.0,34.0,-999,-99.99,,,-99.99,,2013-01-24 22:33:00,
2013-01-24 17:43:00,26.0,-99.9,30.39,NW,325,27.0,34.0,-999,-99.99,,,-99.99,,2013-01-24 22:43:00,
2013-01-24 17:53:00,-999.0,-99.9,30.40,NW,323,28.0,32.0,-999,-99.99,,,-99.99,,2013-01-24 22:53:00,
2013-01-24 18:03:00,-999.0,-99.9,30.40,NW,323,28.0,32.0,-999,-99.99,,,-99.99,,2013-01-24 23:03:00,
2013-01-24 18:13:00,26.0,-99.9,30.42,NNW,339,27.0,33.0,-999,-99.99,,,-99.99,,2013-01-24 23:13:00,
2013-01-24 18:22:00,26.0,-99.9,30.42,NNW,336,26.0,32.0,-999,-99.99,,,-99.99,,2013-01-24 23:22:00,
2013-01-24 18:32:00,26.0,-99.9,30.42,NNW,336,26.0,32.0,-999,-99.99,,,-99.99,,2013-01-24 23:32:00,
2013-01-24 18:43:00,26.0,-99.9,30.42,NNW,336,26.0,32.0,-999,-99.99,,,-99.99,,2013-01-24 23:43:00,
2013-01-24 18:52:00,26.0,-99.9,30.43,NNW,328,26.0,33.0,-999,-99.99,,,-99.99,,2013-01-24 23:52:00,
2013-01-24 19:00:00,26.0,-99.9,30.45,NW,326,25.0,34.0,-999,-99.99,,,-99.99,,2013-01-25 00:00:00,
2013-01-24 19:02:00,26.0,-99.9,30.43,NNW,340,25.0,31.0,-999,-99.99,,,-99.99,,2013-01-25 00:02:00,
2013-01-24 19:12:00,26.0,-99.9,30.43,NNW,340,25.0,31.0,-999,-99.99,,,-99.99,,2013-01-25 00:12:00,
2013-01-24 19:22:00,26.0,-99.9,30.43,NNW,340,25.0,31.0,-999,-99.99,,,-99.99,,2013-01-25 00:22:00,
2013-01-24 19:32:00,26.0,-99.9,30.45,NW,326,25.0,34.0,-999,-99.99,,,-99.99,,2013-01-25 00:32:00,
2013-01-24 19:42:00,26.0,-99.9,30.45,NW,326,25.0,34.0,-999,-99.99,,,-99.99,,2013-01-25 00:42:00,
2013-01-24 19:53:00,26.0,-99.9,30.45,NW,326,25.0,34.0,-999,-99.99,,,-99.99,,2013-01-25 00:53:00,
2013-01-24 20:22:00,-999.0,-99.9,30.47,WNW,288,11.0,14.0,-999,-99.99,,,-99.99,,2013-01-25 01:22:00,
2013-01-24 20:32:00,-999.0,-99.9,30.48,West,279,10.0,12.0,-999,-99.99,,,-99.99,,2013-01-25 01:32:00,
2013-01-24 20:43:00,-999.0,-99.9,30.48,West,279,10.0,12.0,-999,-99.99,,,-99.99,,2013-01-25 01:43:00,
2013-01-24 20:52:00,23.0,-99.9,30.47,WNW,296,11.0,12.0,-999,-99.99,,,-99.99,,2013-01-25 01:52:00,
2013-01-24 21:03:00,24.0,-99.9,30.47,WNW,303,12.0,13.0,-999,-99.99,,,-99.99,,2013-01-25 02:03:00,
2013-01-24 21:12:00,24.0,-99.9,30.47,WNW,303,12.0,13.0,-999,-99.99,,,-99.99,,2013-01-25 02:12:00,
2013-01-24 21:22:00,24.0,-99.9,30.46,NW,311,13.0,15.0,-999,-99.99,,,-99.99,,2013-01-25 02:22:00,
2013-01-24 21:33:00,24.0,-99.9,30.48,WNW,285,15.0,18.0,-999,-99.99,,,-99.99,,2013-01-25 02:33:00,
2013-01-24 21:42:00,23.0,-99.9,30.48,WNW,299,12.0,14.0,-999,-99.99,,,-99.99,,2013-01-25 02:42:00,
2013-01-24 21:43:00,23.0,-99.9,30.48,WNW,287,12.0,15.0,-999,-99.99,,,-99.99,,2013-01-25 02:43:00,
2013-01-24 21:53:00,23.0,-99.9,30.48,WNW,287,12.0,15.0,-999,-99.99,,,-99.99,,2013-01-25 02:53:00,
2013-01-24 22:02:00,23.0,-99.9,30.48,WNW,287,12.0,15.0,-999,-99.99,,,-99.99,,2013-01-25 03:02:00,
2013-01-24 22:12:00,23.0,-99.9,30.48,WNW,299,12.0,14.0,-999,-99.99,,,-99.99,,2013-01-25 03:12:00,
2013-01-24 22:22:00,23.0,-99.9,30.48,WNW,299,12.0,14.0,-999,-99.99,,,-99.99,,2013-01-25 03:22:00,
2013-01-24 22:33:00,23.0,-99.9,30.48,WNW,299,12.0,14.0,-999,-99.99,,,-99.99,,2013-01-25 03:33:00,
2013-01-24 23:22:00,22.0,-99.9,30.48,WNW,289,13.0,15.0,-999,-99.99,,,-99.99,,2013-01-25 04:22:00,
2013-01-24 23:32:00,-999.0,-99.9,30.48,WNW,292,13.0,15.0,-999,-99.99,,,-99.99,,2013-01-25 04:32:00,
2013-01-24 23:42:00,22.0,-99.9,30.48,WNW,297,12.0,15.0,-999,-99.99,,,-99.99,,2013-01-25 04:42:00,
2013-01-24 23:52:00,-999.0,-99.9,30.48,WNW,297,14.0,16.0,-999,-99.99,,,-99.99,,2013-01-25 04:52:00,